sensor_id;sensor_type;location;lat;lon;timestamp;pressure;altitude;pressure_sealevel;temperature;humidity
8416;BME280;4245;42.120;24.732;2023-04-27T00:00:37;98793.69;;;13.23;70.64
8416;BME280;4245;42.120;24.732;2023-04-27T00:03:05;98780.13;;;13.05;71.87
8416;BME280;4245;42.120;24.732;2023-04-27T00:05:33;98808.69;;;13.14;71.35
8416;BME280;4245;42.120;24.732;2023-04-27T00:08:00;98791.13;;;13.12;71.05
8416;BME280;4245;42.120;24.732;2023-04-27T00:10:27;98799.06;;;13.02;71.68
8416;BME280;4245;42.120;24.732;2023-04-27T00:12:54;98802.38;;;13.15;71.26
8416;BME280;4245;42.120;24.732;2023-04-27T00:15:20;98803.47;;;13.13;71.15
8416;BME280;4245;42.120;24.732;2023-04-27T00:17:47;98806.13;;;13.13;71.12
8416;BME280;4245;42.120;24.732;2023-04-27T00:20:16;98823.31;;;13.20;70.83
8416;BME280;4245;42.120;24.732;2023-04-27T00:22:43;98810.16;;;13.07;71.66
8416;BME280;4245;42.120;24.732;2023-04-27T00:25:10;98826.03;;;13.08;70.89
8416;BME280;4245;42.120;24.732;2023-04-27T00:27:37;98817.47;;;13.05;70.51
8416;BME280;4245;42.120;24.732;2023-04-27T00:30:05;98813.50;;;12.99;71.24
8416;BME280;4245;42.120;24.732;2023-04-27T00:32:32;98828.66;;;12.99;71.60
8416;BME280;4245;42.120;24.732;2023-04-27T00:34:59;98827.28;;;13.04;71.47
8416;BME280;4245;42.120;24.732;2023-04-27T00:37:27;98834.25;;;12.96;72.13
8416;BME280;4245;42.120;24.732;2023-04-27T00:39:54;98836.19;;;12.94;72.28
8416;BME280;4245;42.120;24.732;2023-04-27T00:42:21;98835.34;;;12.93;72.53
8416;BME280;4245;42.120;24.732;2023-04-27T00:44:49;98837.91;;;12.95;72.37
8416;BME280;4245;42.120;24.732;2023-04-27T00:47:16;98842.44;;;13.04;72.42
8416;BME280;4245;42.120;24.732;2023-04-27T00:49:43;98849.03;;;12.79;73.69
8416;BME280;4245;42.120;24.732;2023-04-27T00:52:10;98843.31;;;12.84;74.89
8416;BME280;4245;42.120;24.732;2023-04-27T00:54:38;98849.19;;;12.78;74.41
8416;BME280;4245;42.120;24.732;2023-04-27T00:57:05;98846.13;;;12.82;74.62
8416;BME280;4245;42.120;24.732;2023-04-27T00:59:32;98849.44;;;12.75;74.05
8416;BME280;4245;42.120;24.732;2023-04-27T01:01:58;98848.91;;;12.60;74.76
8416;BME280;4245;42.120;24.732;2023-04-27T01:04:26;98849.19;;;12.57;75.50
8416;BME280;4245;42.120;24.732;2023-04-27T01:06:53;98851.56;;;12.60;75.35
8416;BME280;4245;42.120;24.732;2023-04-27T01:09:20;98849.38;;;12.44;75.21
8416;BME280;4245;42.120;24.732;2023-04-27T01:11:48;98847.47;;;12.35;76.48
8416;BME280;4245;42.120;24.732;2023-04-27T01:14:14;98850.91;;;12.26;76.67
8416;BME280;4245;42.120;24.732;2023-04-27T01:16:42;98858.25;;;12.13;77.53
8416;BME280;4245;42.120;24.732;2023-04-27T01:19:09;98861.00;;;12.23;76.91
8416;BME280;4245;42.120;24.732;2023-04-27T01:21:35;98856.25;;;12.26;76.30
8416;BME280;4245;42.120;24.732;2023-04-27T01:24:05;98869.31;;;12.29;74.88
8416;BME280;4245;42.120;24.732;2023-04-27T01:26:32;98863.69;;;12.43;73.47
8416;BME280;4245;42.120;24.732;2023-04-27T01:28:59;98870.28;;;12.28;73.70
8416;BME280;4245;42.120;24.732;2023-04-27T01:31:26;98878.47;;;12.36;73.24
8416;BME280;4245;42.120;24.732;2023-04-27T01:33:53;98881.59;;;12.41;72.83
8416;BME280;4245;42.120;24.732;2023-04-27T01:36:20;98873.59;;;12.41;72.06
8416;BME280;4245;42.120;24.732;2023-04-27T01:38:47;98880.28;;;12.36;71.83
8416;BME280;4245;42.120;24.732;2023-04-27T01:41:15;98881.03;;;12.38;71.96
8416;BME280;4245;42.120;24.732;2023-04-27T01:43:42;98885.75;;;12.34;70.63
8416;BME280;4245;42.120;24.732;2023-04-27T01:46:10;98886.59;;;12.35;70.71
8416;BME280;4245;42.120;24.732;2023-04-27T01:48:37;98893.16;;;12.51;70.10
8416;BME280;4245;42.120;24.732;2023-04-27T01:51:04;98895.75;;;12.42;70.05
8416;BME280;4245;42.120;24.732;2023-04-27T01:53:32;98897.31;;;12.44;69.93
8416;BME280;4245;42.120;24.732;2023-04-27T01:55:59;98906.34;;;12.32;70.87
8416;BME280;4245;42.120;24.732;2023-04-27T01:58:27;98899.69;;;12.27;70.73
8416;BME280;4245;42.120;24.732;2023-04-27T02:00:54;98900.63;;;12.37;70.50
8416;BME280;4245;42.120;24.732;2023-04-27T02:03:21;98906.34;;;12.32;70.49
8416;BME280;4245;42.120;24.732;2023-04-27T02:05:47;98907.81;;;12.25;70.29
8416;BME280;4245;42.120;24.732;2023-04-27T02:08:14;98910.09;;;12.30;70.11
8416;BME280;4245;42.120;24.732;2023-04-27T02:10:41;98913.31;;;12.12;70.89
8416;BME280;4245;42.120;24.732;2023-04-27T02:13:08;98921.13;;;12.25;69.85
8416;BME280;4245;42.120;24.732;2023-04-27T02:15:36;98915.09;;;12.23;70.36
8416;BME280;4245;42.120;24.732;2023-04-27T02:18:03;98914.50;;;12.19;70.62
8416;BME280;4245;42.120;24.732;2023-04-27T02:20:31;98923.47;;;12.18;70.03
8416;BME280;4245;42.120;24.732;2023-04-27T02:22:58;98914.41;;;12.10;70.13
8416;BME280;4245;42.120;24.732;2023-04-27T02:25:25;98918.00;;;12.20;69.61
8416;BME280;4245;42.120;24.732;2023-04-27T02:27:52;98926.25;;;12.17;69.62
8416;BME280;4245;42.120;24.732;2023-04-27T02:30:19;98929.50;;;12.20;69.18
8416;BME280;4245;42.120;24.732;2023-04-27T02:32:48;98928.41;;;12.23;69.19
8416;BME280;4245;42.120;24.732;2023-04-27T02:35:14;98923.09;;;12.23;68.31
8416;BME280;4245;42.120;24.732;2023-04-27T02:37:41;98920.03;;;12.28;67.34
8416;BME280;4245;42.120;24.732;2023-04-27T02:40:08;98926.06;;;12.30;66.82
8416;BME280;4245;42.120;24.732;2023-04-27T02:42:35;98922.19;;;12.34;66.53
8416;BME280;4245;42.120;24.732;2023-04-27T02:45:05;98930.78;;;12.37;65.84
8416;BME280;4245;42.120;24.732;2023-04-27T02:47:32;98931.66;;;12.27;66.33
8416;BME280;4245;42.120;24.732;2023-04-27T02:50:00;98934.19;;;12.28;66.12
8416;BME280;4245;42.120;24.732;2023-04-27T02:52:28;98927.00;;;12.40;65.18
8416;BME280;4245;42.120;24.732;2023-04-27T02:54:55;98930.56;;;12.29;65.27
8416;BME280;4245;42.120;24.732;2023-04-27T02:57:21;98933.81;;;12.33;64.91
8416;BME280;4245;42.120;24.732;2023-04-27T02:59:48;98944.00;;;12.28;65.61
8416;BME280;4245;42.120;24.732;2023-04-27T03:02:15;98939.16;;;12.33;64.76
8416;BME280;4245;42.120;24.732;2023-04-27T03:04:42;98934.28;;;12.38;64.58
8416;BME280;4245;42.120;24.732;2023-04-27T03:07:10;98942.97;;;12.40;64.05
8416;BME280;4245;42.120;24.732;2023-04-27T03:09:37;98940.75;;;12.24;65.42
8416;BME280;4245;42.120;24.732;2023-04-27T03:12:04;98939.94;;;12.44;64.34
8416;BME280;4245;42.120;24.732;2023-04-27T03:14:31;98948.00;;;12.54;63.59
8416;BME280;4245;42.120;24.732;2023-04-27T03:16:58;98945.72;;;12.49;62.98
8416;BME280;4245;42.120;24.732;2023-04-27T03:19:25;98951.69;;;12.42;63.48
8416;BME280;4245;42.120;24.732;2023-04-27T03:21:52;98951.69;;;12.42;63.65
8416;BME280;4245;42.120;24.732;2023-04-27T03:24:20;98961.88;;;12.37;62.81
8416;BME280;4245;42.120;24.732;2023-04-27T03:26:50;98959.34;;;12.35;63.89
8416;BME280;4245;42.120;24.732;2023-04-27T03:29:16;98959.56;;;12.43;63.07
8416;BME280;4245;42.120;24.732;2023-04-27T03:31:43;98958.25;;;12.38;63.92
8416;BME280;4245;42.120;24.732;2023-04-27T03:34:10;98969.63;;;12.40;63.55
8416;BME280;4245;42.120;24.732;2023-04-27T03:36:37;98960.16;;;12.47;62.75
8416;BME280;4245;42.120;24.732;2023-04-27T03:39:03;98966.25;;;12.38;62.71
8416;BME280;4245;42.120;24.732;2023-04-27T03:41:32;98967.47;;;12.34;62.97
8416;BME280;4245;42.120;24.732;2023-04-27T03:43:58;98965.66;;;12.34;62.85
8416;BME280;4245;42.120;24.732;2023-04-27T03:46:25;98958.56;;;12.24;63.10
8416;BME280;4245;42.120;24.732;2023-04-27T03:48:52;98972.91;;;12.32;63.02
8416;BME280;4245;42.120;24.732;2023-04-27T03:51:19;98974.72;;;12.32;62.91
8416;BME280;4245;42.120;24.732;2023-04-27T03:53:45;98982.63;;;12.54;62.08
8416;BME280;4245;42.120;24.732;2023-04-27T03:56:12;98977.06;;;12.57;61.73
8416;BME280;4245;42.120;24.732;2023-04-27T03:58:40;98985.19;;;12.55;61.91
8416;BME280;4245;42.120;24.732;2023-04-27T04:01:07;98986.03;;;12.56;61.20
8416;BME280;4245;42.120;24.732;2023-04-27T04:03:35;98992.88;;;12.38;61.99
8416;BME280;4245;42.120;24.732;2023-04-27T04:06:02;98996.50;;;12.37;62.42
8416;BME280;4245;42.120;24.732;2023-04-27T04:08:29;99001.09;;;12.35;61.57
8416;BME280;4245;42.120;24.732;2023-04-27T04:10:57;98997.47;;;12.36;61.43
8416;BME280;4245;42.120;24.732;2023-04-27T04:13:24;98990.19;;;12.49;61.60
8416;BME280;4245;42.120;24.732;2023-04-27T04:16:01;99001.94;;;12.46;60.59
8416;BME280;4245;42.120;24.732;2023-04-27T04:18:28;99008.38;;;12.44;60.90
8416;BME280;4245;42.120;24.732;2023-04-27T04:20:54;99000.59;;;12.52;61.48
8416;BME280;4245;42.120;24.732;2023-04-27T04:23:21;99012.94;;;12.53;61.37
8416;BME280;4245;42.120;24.732;2023-04-27T04:25:49;99012.69;;;12.56;61.40
8416;BME280;4245;42.120;24.732;2023-04-27T04:28:15;99012.19;;;12.62;59.84
8416;BME280;4245;42.120;24.732;2023-04-27T04:30:42;99018.81;;;12.68;59.22
8416;BME280;4245;42.120;24.732;2023-04-27T04:33:11;99012.56;;;12.57;59.46
8416;BME280;4245;42.120;24.732;2023-04-27T04:35:38;99028.53;;;12.57;59.91
8416;BME280;4245;42.120;24.732;2023-04-27T04:38:05;99019.59;;;12.58;59.45
8416;BME280;4245;42.120;24.732;2023-04-27T04:40:33;99021.13;;;12.61;59.45
8416;BME280;4245;42.120;24.732;2023-04-27T04:43:00;99025.59;;;12.72;59.49
8416;BME280;4245;42.120;24.732;2023-04-27T04:45:27;99027.97;;;12.75;59.91
8416;BME280;4245;42.120;24.732;2023-04-27T04:47:54;99032.63;;;12.93;59.00
8416;BME280;4245;42.120;24.732;2023-04-27T04:50:23;99028.16;;;12.94;58.57
8416;BME280;4245;42.120;24.732;2023-04-27T04:52:50;99041.75;;;12.91;58.12
8416;BME280;4245;42.120;24.732;2023-04-27T04:55:16;99036.78;;;12.86;58.38
8416;BME280;4245;42.120;24.732;2023-04-27T04:57:43;99033.09;;;12.98;58.07
8416;BME280;4245;42.120;24.732;2023-04-27T05:00:11;99055.16;;;13.00;58.02
8416;BME280;4245;42.120;24.732;2023-04-27T05:02:38;99047.25;;;12.99;57.76
8416;BME280;4245;42.120;24.732;2023-04-27T05:05:06;99057.34;;;12.95;58.48
8416;BME280;4245;42.120;24.732;2023-04-27T05:07:34;99061.41;;;13.11;56.71
8416;BME280;4245;42.120;24.732;2023-04-27T05:10:01;99060.09;;;13.05;56.58
8416;BME280;4245;42.120;24.732;2023-04-27T05:12:27;99056.63;;;12.93;56.79
8416;BME280;4245;42.120;24.732;2023-04-27T05:14:54;99068.13;;;12.94;57.60
8416;BME280;4245;42.120;24.732;2023-04-27T05:17:21;99069.44;;;12.99;57.84
8416;BME280;4245;42.120;24.732;2023-04-27T05:19:48;99064.22;;;12.98;56.17
8416;BME280;4245;42.120;24.732;2023-04-27T05:22:15;99073.19;;;12.76;57.49
8416;BME280;4245;42.120;24.732;2023-04-27T05:24:43;99070.94;;;12.92;56.50
8416;BME280;4245;42.120;24.732;2023-04-27T05:27:11;99071.84;;;13.02;57.39
8416;BME280;4245;42.120;24.732;2023-04-27T05:29:39;99070.47;;;13.19;60.62
8416;BME280;4245;42.120;24.732;2023-04-27T05:32:05;99069.63;;;13.19;58.74
8416;BME280;4245;42.120;24.732;2023-04-27T05:34:32;99062.53;;;13.29;55.54
8416;BME280;4245;42.120;24.732;2023-04-27T05:36:59;99074.47;;;13.25;56.69
8416;BME280;4245;42.120;24.732;2023-04-27T05:39:26;99067.75;;;13.30;55.15
8416;BME280;4245;42.120;24.732;2023-04-27T05:41:54;99071.59;;;13.17;55.71
8416;BME280;4245;42.120;24.732;2023-04-27T05:44:21;99070.03;;;13.03;55.81
8416;BME280;4245;42.120;24.732;2023-04-27T05:46:49;99070.28;;;13.00;54.34
8416;BME280;4245;42.120;24.732;2023-04-27T05:49:16;99078.41;;;12.98;56.23
8416;BME280;4245;42.120;24.732;2023-04-27T05:51:43;99089.72;;;13.23;55.58
8416;BME280;4245;42.120;24.732;2023-04-27T05:54:10;99080.31;;;13.39;55.64
8416;BME280;4245;42.120;24.732;2023-04-27T05:56:36;99098.78;;;13.52;55.80
8416;BME280;4245;42.120;24.732;2023-04-27T05:59:04;99095.97;;;13.33;54.04
8416;BME280;4245;42.120;24.732;2023-04-27T06:01:31;99098.69;;;13.22;54.75
8416;BME280;4245;42.120;24.732;2023-04-27T06:03:58;99102.69;;;13.27;54.59
8416;BME280;4245;42.120;24.732;2023-04-27T06:06:25;99101.66;;;13.39;54.83
8416;BME280;4245;42.120;24.732;2023-04-27T06:08:53;99103.88;;;13.55;53.91
8416;BME280;4245;42.120;24.732;2023-04-27T06:11:20;99110.31;;;13.53;52.35
8416;BME280;4245;42.120;24.732;2023-04-27T06:13:48;99095.09;;;13.43;54.95
8416;BME280;4245;42.120;24.732;2023-04-27T06:16:16;99098.78;;;13.73;53.47
8416;BME280;4245;42.120;24.732;2023-04-27T06:18:42;99115.78;;;13.72;52.42
8416;BME280;4245;42.120;24.732;2023-04-27T06:21:09;99099.63;;;13.94;56.04
8416;BME280;4245;42.120;24.732;2023-04-27T06:23:36;99108.31;;;13.96;51.55
8416;BME280;4245;42.120;24.732;2023-04-27T06:26:03;99106.09;;;14.01;52.30
8416;BME280;4245;42.120;24.732;2023-04-27T06:28:29;99102.56;;;14.01;52.28
8416;BME280;4245;42.120;24.732;2023-04-27T06:30:56;99107.41;;;13.86;52.43
8416;BME280;4245;42.120;24.732;2023-04-27T06:33:24;99109.25;;;13.85;53.29
8416;BME280;4245;42.120;24.732;2023-04-27T06:35:51;99107.19;;;13.89;53.05
8416;BME280;4245;42.120;24.732;2023-04-27T06:38:18;99116.75;;;14.22;52.44
8416;BME280;4245;42.120;24.732;2023-04-27T06:40:49;99123.00;;;13.81;52.49
8416;BME280;4245;42.120;24.732;2023-04-27T06:43:16;99110.59;;;13.49;53.08
8416;BME280;4245;42.120;24.732;2023-04-27T06:45:43;99118.19;;;13.54;53.43
8416;BME280;4245;42.120;24.732;2023-04-27T06:48:10;99116.38;;;13.55;53.17
8416;BME280;4245;42.120;24.732;2023-04-27T06:50:38;99114.91;;;13.71;53.23
8416;BME280;4245;42.120;24.732;2023-04-27T06:53:05;99119.28;;;13.72;53.54
8416;BME280;4245;42.120;24.732;2023-04-27T06:55:31;99117.53;;;13.62;53.30
8416;BME280;4245;42.120;24.732;2023-04-27T06:57:58;99116.31;;;13.45;54.16
8416;BME280;4245;42.120;24.732;2023-04-27T07:00:25;99118.38;;;13.62;53.96
8416;BME280;4245;42.120;24.732;2023-04-27T07:02:52;99126.63;;;13.80;53.73
8416;BME280;4245;42.120;24.732;2023-04-27T07:05:19;99118.44;;;13.92;52.44
8416;BME280;4245;42.120;24.732;2023-04-27T07:07:47;99121.75;;;13.85;52.70
8416;BME280;4245;42.120;24.732;2023-04-27T07:10:14;99124.22;;;13.98;52.78
8416;BME280;4245;42.120;24.732;2023-04-27T07:12:41;99126.44;;;13.92;53.25
8416;BME280;4245;42.120;24.732;2023-04-27T07:15:08;99123.88;;;14.12;52.56
8416;BME280;4245;42.120;24.732;2023-04-27T07:17:35;99122.50;;;14.17;52.77
8416;BME280;4245;42.120;24.732;2023-04-27T07:20:03;99136.34;;;14.32;51.83
8416;BME280;4245;42.120;24.732;2023-04-27T07:22:31;99126.63;;;14.31;51.17
8416;BME280;4245;42.120;24.732;2023-04-27T07:24:59;99121.00;;;14.34;51.84
8416;BME280;4245;42.120;24.732;2023-04-27T07:27:26;99123.38;;;14.27;52.30
8416;BME280;4245;42.120;24.732;2023-04-27T07:29:53;99116.47;;;14.25;52.67
8416;BME280;4245;42.120;24.732;2023-04-27T07:32:20;99118.13;;;14.47;52.02
8416;BME280;4245;42.120;24.732;2023-04-27T07:34:47;99122.63;;;14.96;49.68
8416;BME280;4245;42.120;24.732;2023-04-27T07:37:14;99128.13;;;15.33;47.94
8416;BME280;4245;42.120;24.732;2023-04-27T07:39:41;99120.38;;;15.58;47.24
8416;BME280;4245;42.120;24.732;2023-04-27T07:42:10;99116.34;;;16.01;46.42
8416;BME280;4245;42.120;24.732;2023-04-27T07:44:37;99123.38;;;16.12;45.76
8416;BME280;4245;42.120;24.732;2023-04-27T07:47:05;99113.78;;;16.36;44.99
8416;BME280;4245;42.120;24.732;2023-04-27T07:49:31;99107.34;;;16.57;44.60
8416;BME280;4245;42.120;24.732;2023-04-27T07:51:59;99109.63;;;16.51;43.69
8416;BME280;4245;42.120;24.732;2023-04-27T07:54:26;99111.72;;;16.58;44.12
8416;BME280;4245;42.120;24.732;2023-04-27T07:56:53;99114.56;;;16.83;43.75
8416;BME280;4245;42.120;24.732;2023-04-27T07:59:21;99117.38;;;16.82;42.80
8416;BME280;4245;42.120;24.732;2023-04-27T08:01:48;99120.47;;;16.87;42.65
8416;BME280;4245;42.120;24.732;2023-04-27T08:04:15;99122.78;;;17.00;42.10
8416;BME280;4245;42.120;24.732;2023-04-27T08:06:41;99115.34;;;17.11;41.77
8416;BME280;4245;42.120;24.732;2023-04-27T08:09:10;99117.13;;;17.20;42.10
8416;BME280;4245;42.120;24.732;2023-04-27T08:11:37;99112.88;;;17.53;41.68
8416;BME280;4245;42.120;24.732;2023-04-27T08:14:04;99118.34;;;17.61;40.92
8416;BME280;4245;42.120;24.732;2023-04-27T08:16:34;99109.13;;;17.64;41.41
8416;BME280;4245;42.120;24.732;2023-04-27T08:19:01;99109.88;;;17.74;40.59
8416;BME280;4245;42.120;24.732;2023-04-27T08:21:28;99105.81;;;17.70;40.53
8416;BME280;4245;42.120;24.732;2023-04-27T08:23:56;99103.97;;;17.96;40.02
8416;BME280;4245;42.120;24.732;2023-04-27T08:26:23;99113.66;;;17.81;40.44
8416;BME280;4245;42.120;24.732;2023-04-27T08:28:50;99103.09;;;17.62;40.63
8416;BME280;4245;42.120;24.732;2023-04-27T08:31:17;99093.84;;;17.64;41.25
8416;BME280;4245;42.120;24.732;2023-04-27T08:33:45;99094.06;;;17.97;40.62
8416;BME280;4245;42.120;24.732;2023-04-27T08:36:12;99092.13;;;18.07;39.86
8416;BME280;4245;42.120;24.732;2023-04-27T08:38:39;99095.75;;;18.23;39.12
8416;BME280;4245;42.120;24.732;2023-04-27T08:41:06;99082.38;;;17.36;40.92
8416;BME280;4245;42.120;24.732;2023-04-27T08:43:33;99085.81;;;17.29;41.17
8416;BME280;4245;42.120;24.732;2023-04-27T08:46:01;99080.66;;;17.71;41.15
8416;BME280;4245;42.120;24.732;2023-04-27T08:48:28;99087.56;;;17.99;41.08
8416;BME280;4245;42.120;24.732;2023-04-27T08:50:58;99074.34;;;18.48;39.73
8416;BME280;4245;42.120;24.732;2023-04-27T08:53:25;99082.31;;;18.57;39.34
8416;BME280;4245;42.120;24.732;2023-04-27T08:55:52;99084.22;;;18.73;40.74
8416;BME280;4245;42.120;24.732;2023-04-27T08:58:20;99077.03;;;19.22;39.39
8416;BME280;4245;42.120;24.732;2023-04-27T09:00:47;99073.00;;;19.42;41.47
8416;BME280;4245;42.120;24.732;2023-04-27T09:03:20;99079.41;;;19.66;37.84
8416;BME280;4245;42.120;24.732;2023-04-27T09:05:47;99075.03;;;19.32;36.49
8416;BME280;4245;42.120;24.732;2023-04-27T09:08:16;99072.69;;;19.29;36.37
8416;BME280;4245;42.120;24.732;2023-04-27T09:10:44;99068.66;;;19.58;36.24
8416;BME280;4245;42.120;24.732;2023-04-27T09:13:11;99071.69;;;19.63;36.29
8416;BME280;4245;42.120;24.732;2023-04-27T09:15:42;99067.28;;;19.29;37.05
8416;BME280;4245;42.120;24.732;2023-04-27T09:18:14;99063.25;;;19.41;36.93
8416;BME280;4245;42.120;24.732;2023-04-27T09:20:42;99073.53;;;19.62;36.98
8416;BME280;4245;42.120;24.732;2023-04-27T09:23:09;99074.38;;;19.71;36.22
8416;BME280;4245;42.120;24.732;2023-04-27T09:25:37;99069.41;;;20.07;35.76
8416;BME280;4245;42.120;24.732;2023-04-27T09:28:04;99076.09;;;20.74;34.99
8416;BME280;4245;42.120;24.732;2023-04-27T09:30:30;99056.66;;;21.01;35.76
8416;BME280;4245;42.120;24.732;2023-04-27T09:32:59;99068.22;;;20.95;34.98
8416;BME280;4245;42.120;24.732;2023-04-27T09:35:28;99063.88;;;20.86;33.52
8416;BME280;4245;42.120;24.732;2023-04-27T09:37:56;99057.03;;;20.75;33.46
8416;BME280;4245;42.120;24.732;2023-04-27T09:40:25;99061.72;;;20.81;33.88
8416;BME280;4245;42.120;24.732;2023-04-27T09:42:55;99053.53;;;21.43;33.34
8416;BME280;4245;42.120;24.732;2023-04-27T09:45:22;99054.78;;;21.33;33.05
8416;BME280;4245;42.120;24.732;2023-04-27T09:47:49;99049.50;;;21.77;32.66
8416;BME280;4245;42.120;24.732;2023-04-27T09:50:15;99070.66;;;20.51;33.69
8416;BME280;4245;42.120;24.732;2023-04-27T09:52:43;99059.53;;;20.46;33.98
8416;BME280;4245;42.120;24.732;2023-04-27T09:55:15;99053.41;;;21.14;33.80
8416;BME280;4245;42.120;24.732;2023-04-27T09:57:50;99050.69;;;21.89;32.33
8416;BME280;4245;42.120;24.732;2023-04-27T10:00:28;99058.69;;;22.20;31.52
8416;BME280;4245;42.120;24.732;2023-04-27T10:03:06;99053.97;;;21.84;31.66
8416;BME280;4245;42.120;24.732;2023-04-27T10:05:57;99057.19;;;21.05;32.72
8416;BME280;4245;42.120;24.732;2023-04-27T10:08:35;99059.66;;;20.53;33.69
8416;BME280;4245;42.120;24.732;2023-04-27T10:11:12;99052.22;;;20.08;33.79
8416;BME280;4245;42.120;24.732;2023-04-27T10:13:50;99046.88;;;19.91;34.23
8416;BME280;4245;42.120;24.732;2023-04-27T10:16:19;99061.81;;;20.18;34.13
8416;BME280;4245;42.120;24.732;2023-04-27T10:18:50;99052.59;;;19.96;34.25
8416;BME280;4245;42.120;24.732;2023-04-27T10:21:18;99052.47;;;19.74;35.12
8416;BME280;4245;42.120;24.732;2023-04-27T10:23:46;99049.63;;;19.43;34.94
8416;BME280;4245;42.120;24.732;2023-04-27T10:26:21;99065.94;;;19.33;35.83
8416;BME280;4245;42.120;24.732;2023-04-27T10:28:56;99060.03;;;19.14;35.73
8416;BME280;4245;42.120;24.732;2023-04-27T10:31:28;99054.00;;;19.28;36.14
8416;BME280;4245;42.120;24.732;2023-04-27T10:34:05;99049.28;;;19.05;36.23
8416;BME280;4245;42.120;24.732;2023-04-27T10:36:37;99056.19;;;19.24;37.53
8416;BME280;4245;42.120;24.732;2023-04-27T10:39:15;99057.84;;;19.09;39.30
8416;BME280;4245;42.120;24.732;2023-04-27T10:41:49;99048.44;;;19.29;39.70
8416;BME280;4245;42.120;24.732;2023-04-27T10:44:17;99057.03;;;19.41;39.38
8416;BME280;4245;42.120;24.732;2023-04-27T10:46:52;99060.91;;;19.63;38.58
8416;BME280;4245;42.120;24.732;2023-04-27T10:49:20;99055.66;;;19.93;37.28
8416;BME280;4245;42.120;24.732;2023-04-27T10:51:49;99068.59;;;19.90;35.94
8416;BME280;4245;42.120;24.732;2023-04-27T10:54:16;99064.09;;;19.66;36.55
8416;BME280;4245;42.120;24.732;2023-04-27T10:56:44;99063.16;;;20.14;35.09
8416;BME280;4245;42.120;24.732;2023-04-27T10:59:11;99069.84;;;20.34;35.31
8416;BME280;4245;42.120;24.732;2023-04-27T11:01:39;99067.69;;;20.22;35.49
8416;BME280;4245;42.120;24.732;2023-04-27T11:04:08;99070.66;;;19.88;36.56
8416;BME280;4245;42.120;24.732;2023-04-27T11:06:41;99065.22;;;19.96;35.25
8416;BME280;4245;42.120;24.732;2023-04-27T11:09:08;99064.06;;;19.90;35.58
8416;BME280;4245;42.120;24.732;2023-04-27T11:11:37;99075.41;;;19.70;35.26
8416;BME280;4245;42.120;24.732;2023-04-27T11:14:03;99068.16;;;19.70;35.99
8416;BME280;4245;42.120;24.732;2023-04-27T11:16:31;99073.00;;;19.99;35.32
8416;BME280;4245;42.120;24.732;2023-04-27T11:19:03;99074.22;;;19.56;36.00
8416;BME280;4245;42.120;24.732;2023-04-27T11:21:32;99080.63;;;19.47;35.29
8416;BME280;4245;42.120;24.732;2023-04-27T11:24:03;99070.19;;;19.44;35.13
8416;BME280;4245;42.120;24.732;2023-04-27T11:26:30;99074.53;;;19.37;34.54
8416;BME280;4245;42.120;24.732;2023-04-27T11:28:58;99089.72;;;19.54;34.69
8416;BME280;4245;42.120;24.732;2023-04-27T11:31:26;99089.91;;;19.44;34.03
8416;BME280;4245;42.120;24.732;2023-04-27T11:33:53;99082.25;;;19.07;34.69
8416;BME280;4245;42.120;24.732;2023-04-27T11:36:21;99084.97;;;19.40;33.99
8416;BME280;4245;42.120;24.732;2023-04-27T11:38:56;99086.47;;;19.42;34.14
8416;BME280;4245;42.120;24.732;2023-04-27T11:41:32;99086.50;;;19.75;33.64
8416;BME280;4245;42.120;24.732;2023-04-27T11:44:03;99083.78;;;19.83;33.65
8416;BME280;4245;42.120;24.732;2023-04-27T11:46:32;99085.66;;;19.82;33.08
8416;BME280;4245;42.120;24.732;2023-04-27T11:49:01;99077.22;;;19.93;32.65
8416;BME280;4245;42.120;24.732;2023-04-27T11:51:29;99075.81;;;20.06;32.57
8416;BME280;4245;42.120;24.732;2023-04-27T11:54:00;99075.69;;;19.99;32.73
8416;BME280;4245;42.120;24.732;2023-04-27T11:56:33;99110.09;;;19.57;32.55
8416;BME280;4245;42.120;24.732;2023-04-27T11:59:01;99084.50;;;19.44;33.16
8416;BME280;4245;42.120;24.732;2023-04-27T12:01:30;99084.50;;;19.52;33.03
8416;BME280;4245;42.120;24.732;2023-04-27T12:03:57;99083.13;;;19.89;32.78
8416;BME280;4245;42.120;24.732;2023-04-27T12:06:24;99081.41;;;20.04;32.30
8416;BME280;4245;42.120;24.732;2023-04-27T12:08:51;99074.44;;;20.18;31.97
8416;BME280;4245;42.120;24.732;2023-04-27T12:11:19;99075.25;;;20.34;31.45
8416;BME280;4245;42.120;24.732;2023-04-27T12:13:46;99066.00;;;20.37;31.44
8416;BME280;4245;42.120;24.732;2023-04-27T12:16:13;99079.59;;;20.44;31.85
8416;BME280;4245;42.120;24.732;2023-04-27T12:18:40;99072.50;;;20.51;31.48
8416;BME280;4245;42.120;24.732;2023-04-27T12:21:06;99070.41;;;20.92;31.23
8416;BME280;4245;42.120;24.732;2023-04-27T12:23:34;99070.94;;;21.41;30.37
8416;BME280;4245;42.120;24.732;2023-04-27T12:26:01;99061.66;;;22.39;29.01
8416;BME280;4245;42.120;24.732;2023-04-27T12:28:29;99074.75;;;23.65;27.76
8416;BME280;4245;42.120;24.732;2023-04-27T12:30:56;99073.38;;;22.76;27.58
8416;BME280;4245;42.120;24.732;2023-04-27T12:33:23;99069.34;;;22.06;28.43
8416;BME280;4245;42.120;24.732;2023-04-27T12:35:50;99057.63;;;21.91;28.97
8416;BME280;4245;42.120;24.732;2023-04-27T12:38:17;99072.59;;;22.96;27.45
8416;BME280;4245;42.120;24.732;2023-04-27T12:40:44;99070.94;;;23.17;27.75
8416;BME280;4245;42.120;24.732;2023-04-27T12:43:11;99057.16;;;23.82;27.48
8416;BME280;4245;42.120;24.732;2023-04-27T12:45:39;99059.75;;;25.20;26.92
8416;BME280;4245;42.120;24.732;2023-04-27T12:48:06;99062.28;;;26.07;25.11
8416;BME280;4245;42.120;24.732;2023-04-27T12:50:36;99050.16;;;25.76;24.36
8416;BME280;4245;42.120;24.732;2023-04-27T12:53:04;99060.50;;;24.40;25.29
8416;BME280;4245;42.120;24.732;2023-04-27T12:55:31;99068.78;;;24.04;25.95
8416;BME280;4245;42.120;24.732;2023-04-27T12:57:58;99060.94;;;23.88;26.07
8416;BME280;4245;42.120;24.732;2023-04-27T13:00:25;99059.59;;;23.49;27.93
8416;BME280;4245;42.120;24.732;2023-04-27T13:02:53;99068.00;;;23.33;27.04
8416;BME280;4245;42.120;24.732;2023-04-27T13:05:20;99072.41;;;22.98;27.80
8416;BME280;4245;42.120;24.732;2023-04-27T13:07:51;99059.41;;;22.58;29.46
8416;BME280;4245;42.120;24.732;2023-04-27T13:10:18;99056.81;;;22.35;29.05
8416;BME280;4245;42.120;24.732;2023-04-27T13:12:44;99054.31;;;22.19;28.54